Time;durP1;ratioP1;P1;durP2;ratioP2;P2;SDS_P1;SDS_P2;PMS_P1;PMS_P2;Temp;Humidity;BMP_temperature;BMP_pressure;BME280_temperature;BME280_humidity;BME280_pressure;Samples;Min_cycle;Max_cycle;Signal;HPM_P1;HPM_P2
2023/01/24 00:00:41;;;;;;;10.20;5.90;;;;;;;;;;5062206;28;20191;-80
2023/01/24 00:03:11;;;;;;;7.53;4.90;;;;;;;;;;5063274;28;20322;-80
2023/01/24 00:05:37;;;;;;;24.70;13.47;;;;;;;;;;5067933;28;20219;-80
2023/01/24 00:08:02;;;;;;;35.13;13.90;;;;;;;;;;5059691;28;20185;-80
2023/01/24 00:10:29;;;;;;;12.27;7.20;;;;;;;;;;5063485;28;20232;-80
2023/01/24 00:12:54;;;;;;;13.87;7.57;;;;;;;;;;5060025;28;20188;-80
2023/01/24 00:15:19;;;;;;;20.10;10.70;;;;;;;;;;5061849;28;20185;-80
2023/01/24 00:17:44;;;;;;;22.00;10.87;;;;;;;;;;5065384;28;20235;-80
2023/01/24 00:20:10;;;;;;;11.93;8.13;;;;;;;;;;5064399;28;20191;-80
2023/01/24 00:22:35;;;;;;;26.17;12.07;;;;;;;;;;5066918;28;20174;-80
2023/01/24 00:25:00;;;;;;;26.07;12.00;;;;;;;;;;5068588;28;20281;-80
2023/01/24 00:27:25;;;;;;;46.10;10.03;;;;;;;;;;5069156;28;20184;-80
2023/01/24 00:29:50;;;;;;;23.67;11.63;;;;;;;;;;5067193;28;20181;-79
2023/01/24 00:32:16;;;;;;;50.00;12.50;;;;;;;;;;5065846;28;20190;-80
2023/01/24 00:34:41;;;;;;;31.43;11.43;;;;;;;;;;5059544;28;20185;-80
2023/01/24 00:37:06;;;;;;;41.20;13.60;;;;;;;;;;5068276;28;20234;-80
2023/01/24 00:39:31;;;;;;;25.50;11.53;;;;;;;;;;5058983;28;20205;-80
2023/01/24 00:41:56;;;;;;;38.53;13.73;;;;;;;;;;5063563;28;20183;-80
2023/01/24 00:44:22;;;;;;;54.03;16.27;;;;;;;;;;5060528;28;20209;-79
2023/01/24 00:46:50;;;;;;;9.40;4.63;;;;;;;;;;5064320;28;20250;-80
2023/01/24 00:49:15;;;;;;;9.27;5.53;;;;;;;;;;5056326;28;20179;-80
2023/01/24 00:51:40;;;;;;;27.73;12.90;;;;;;;;;;5064237;28;20274;-80
2023/01/24 00:54:05;;;;;;;25.07;11.83;;;;;;;;;;5060574;28;20200;-80
2023/01/24 00:56:30;;;;;;;31.90;12.07;;;;;;;;;;5063031;28;20162;-80
2023/01/24 00:58:56;;;;;;;25.33;12.50;;;;;;;;;;5062763;28;20209;-79
2023/01/24 01:01:21;;;;;;;31.43;13.60;;;;;;;;;;5060210;28;20201;-80
2023/01/24 01:03:46;;;;;;;60.47;17.00;;;;;;;;;;5060017;28;20185;-80
2023/01/24 01:06:13;;;;;;;23.23;12.77;;;;;;;;;;5064642;28;20185;-79
2023/01/24 01:08:38;;;;;;;48.53;18.23;;;;;;;;;;5061595;28;20174;-80
2023/01/24 01:11:03;;;;;;;8.60;4.90;;;;;;;;;;5064616;28;20237;-80
2023/01/24 01:13:29;;;;;;;18.57;9.37;;;;;;;;;;5065374;28;20217;-80
2023/01/24 01:16:05;;;;;;;25.93;11.13;;;;;;;;;;5065172;28;20588;-80
2023/01/24 01:18:30;;;;;;;38.13;9.70;;;;;;;;;;5077054;28;20223;-80
2023/01/24 01:20:55;;;;;;;39.83;13.80;;;;;;;;;;5063977;28;20173;-80
2023/01/24 01:23:20;;;;;;;22.33;8.43;;;;;;;;;;5064444;28;20189;-80
2023/01/24 01:25:46;;;;;;;14.80;6.60;;;;;;;;;;5061123;28;20184;-80
2023/01/24 01:28:11;;;;;;;19.53;7.13;;;;;;;;;;5066639;28;20194;-80
2023/01/24 01:30:36;;;;;;;5.90;3.97;;;;;;;;;;5060260;28;20216;-80
2023/01/24 01:33:01;;;;;;;22.07;7.70;;;;;;;;;;5065744;28;20176;-79
2023/01/24 01:35:26;;;;;;;26.60;14.07;;;;;;;;;;5056933;28;20178;-79
2023/01/24 01:37:52;;;;;;;8.80;5.77;;;;;;;;;;5067828;28;20188;-80
2023/01/24 01:40:18;;;;;;;10.77;5.50;;;;;;;;;;5057694;28;20176;-80
2023/01/24 01:42:49;;;;;;;28.83;9.37;;;;;;;;;;5062899;28;20166;-79
2023/01/24 01:45:33;;;;;;;20.63;9.33;;;;;;;;;;5062801;28;20188;-80
2023/01/24 01:47:59;;;;;;;23.27;11.40;;;;;;;;;;5062475;28;20173;-80
2023/01/24 01:50:28;;;;;;;73.03;15.23;;;;;;;;;;5042875;28;20210;-79
2023/01/24 01:52:53;;;;;;;9.17;6.03;;;;;;;;;;5065924;28;20181;-80
2023/01/24 01:55:20;;;;;;;18.13;7.57;;;;;;;;;;5061658;28;20211;-79
2023/01/24 01:57:47;;;;;;;7.37;4.37;;;;;;;;;;5061735;28;20185;-80
2023/01/24 02:00:16;;;;;;;44.60;13.23;;;;;;;;;;5067607;28;20182;-80
2023/01/24 02:02:43;;;;;;;13.77;6.53;;;;;;;;;;5064910;28;20188;-80
2023/01/24 02:05:10;;;;;;;43.80;13.70;;;;;;;;;;5069652;28;20192;-79
2023/01/24 02:07:57;;;;;;;31.40;13.37;;;;;;;;;;5063853;28;20204;-79
2023/01/24 02:10:23;;;;;;;49.80;13.67;;;;;;;;;;5063376;28;20235;-80
2023/01/24 02:12:49;;;;;;;40.43;9.33;;;;;;;;;;5078238;28;20195;-79
2023/01/24 02:18:00;;;;;;;40.43;13.83;;;;;;;;;;5066061;28;20255;-79
2023/01/24 02:20:34;;;;;;;18.03;9.90;;;;;;;;;;5066038;28;20197;-79
2023/01/24 02:23:19;;;;;;;77.30;16.63;;;;;;;;;;5061579;28;20190;-79
2023/01/24 02:25:53;;;;;;;37.70;13.77;;;;;;;;;;5064462;28;20229;-79
2023/01/24 02:28:19;;;;;;;16.23;8.73;;;;;;;;;;5065737;28;20198;-80
2023/01/24 02:30:44;;;;;;;48.23;12.30;;;;;;;;;;5070365;28;20180;-79
2023/01/24 02:33:13;;;;;;;17.47;8.67;;;;;;;;;;5068624;28;20461;-80
2023/01/24 02:35:39;;;;;;;26.40;13.27;;;;;;;;;;5069473;28;20280;-79
2023/01/24 02:38:06;;;;;;;99.03;18.77;;;;;;;;;;5068471;28;20268;-80
2023/01/24 02:40:32;;;;;;;35.17;14.00;;;;;;;;;;5063330;28;20180;-79
2023/01/24 02:42:59;;;;;;;35.33;11.33;;;;;;;;;;5067125;28;20170;-80
2023/01/24 02:45:26;;;;;;;28.67;11.03;;;;;;;;;;5059667;28;20209;-79
2023/01/24 02:47:52;;;;;;;26.90;11.90;;;;;;;;;;5066635;28;20176;-79
2023/01/24 02:50:18;;;;;;;41.70;11.27;;;;;;;;;;5085570;28;20182;-79
2023/01/24 02:55:28;;;;;;;22.73;13.00;;;;;;;;;;5065102;28;20341;-79
2023/01/24 02:58:05;;;;;;;38.30;14.13;;;;;;;;;;5064692;28;20189;-80
2023/01/24 03:00:31;;;;;;;44.20;15.27;;;;;;;;;;5067376;28;20180;-80
2023/01/24 03:02:56;;;;;;;51.80;12.03;;;;;;;;;;5070213;28;20248;-80
2023/01/24 03:05:22;;;;;;;62.43;13.80;;;;;;;;;;5059603;28;20239;-80
2023/01/24 03:07:47;;;;;;;9.33;5.60;;;;;;;;;;5067870;28;20174;-80
2023/01/24 03:10:16;;;;;;;78.07;13.63;;;;;;;;;;5058000;28;20315;-79
2023/01/24 03:34:45;;;;;;;35.87;11.77;;;;;;;;;;5066207;28;20305;-79
2023/01/24 03:37:11;;;;;;;38.53;9.73;;;;;;;;;;5064592;28;20494;-80
2023/01/24 03:39:58;;;;;;;21.83;8.03;;;;;;;;;;5068734;28;20185;-80
2023/01/24 03:42:24;;;;;;;28.60;13.13;;;;;;;;;;5065514;28;20177;-80
2023/01/24 03:44:49;;;;;;;14.03;6.10;;;;;;;;;;5066777;28;20316;-80
2023/01/24 03:47:14;;;;;;;35.97;13.67;;;;;;;;;;5066074;28;20271;-79
2023/01/24 03:52:29;;;;;;;15.77;8.30;;;;;;;;;;5058662;28;20185;-80
2023/01/24 03:54:55;;;;;;;27.30;9.93;;;;;;;;;;5063307;28;20451;-79
2023/01/24 03:57:21;;;;;;;29.23;10.27;;;;;;;;;;5066213;28;20183;-80
2023/01/24 03:59:46;;;;;;;15.93;4.57;;;;;;;;;;5069579;28;20173;-80
2023/01/24 04:02:12;;;;;;;56.60;11.90;;;;;;;;;;5067166;28;20189;-80
2023/01/24 04:07:21;;;;;;;36.13;11.70;;;;;;;;;;5068821;28;20580;-80
2023/01/24 04:09:46;;;;;;;28.13;7.77;;;;;;;;;;5055899;28;20193;-79
2023/01/24 04:12:11;;;;;;;80.07;14.87;;;;;;;;;;5069945;28;20193;-79
2023/01/24 04:14:36;;;;;;;40.23;10.30;;;;;;;;;;5066918;28;20197;-79
2023/01/24 04:17:02;;;;;;;59.27;13.10;;;;;;;;;;5067137;28;20180;-80
2023/01/24 04:19:27;;;;;;;108.90;19.17;;;;;;;;;;5061898;28;20169;-80
2023/01/24 04:21:52;;;;;;;29.23;13.47;;;;;;;;;;5058907;28;20194;-80
2023/01/24 04:24:17;;;;;;;84.47;13.87;;;;;;;;;;5064684;28;20185;-80
2023/01/24 04:26:43;;;;;;;69.27;12.63;;;;;;;;;;5066269;28;20197;-80
2023/01/24 04:29:08;;;;;;;3.83;3.13;;;;;;;;;;5067261;28;20185;-80
2023/01/24 04:31:33;;;;;;;8.20;3.93;;;;;;;;;;5067607;28;20176;-79
2023/01/24 04:33:58;;;;;;;61.43;13.33;;;;;;;;;;5066787;28;20213;-79
2023/01/24 04:36:23;;;;;;;2.37;1.67;;;;;;;;;;5066998;28;20189;-80
2023/01/24 04:38:48;;;;;;;48.30;10.73;;;;;;;;;;5059733;28;20261;-79
2023/01/24 04:41:14;;;;;;;20.63;10.27;;;;;;;;;;5067197;28;20181;-80
2023/01/24 04:43:39;;;;;;;12.10;6.40;;;;;;;;;;5061782;28;20649;-79
2023/01/24 04:46:05;;;;;;;69.50;12.73;;;;;;;;;;5064510;28;20245;-79
2023/01/24 04:48:30;;;;;;;163.63;22.50;;;;;;;;;;5056919;28;20192;-80
2023/01/24 04:50:59;;;;;;;19.97;8.03;;;;;;;;;;5063744;28;20182;-80
2023/01/24 04:53:24;;;;;;;57.73;13.10;;;;;;;;;;5065364;28;20280;-80
2023/01/24 04:55:49;;;;;;;74.93;12.27;;;;;;;;;;5063096;28;20273;-80
2023/01/24 04:58:15;;;;;;;60.63;12.70;;;;;;;;;;5064567;28;20180;-80
2023/01/24 05:00:40;;;;;;;87.20;14.10;;;;;;;;;;5060906;28;20204;-79
2023/01/24 05:03:05;;;;;;;12.80;7.27;;;;;;;;;;5068462;28;20214;-80
2023/01/24 05:05:30;;;;;;;136.77;15.90;;;;;;;;;;5065314;28;20192;-79
2023/01/24 05:07:55;;;;;;;44.83;8.67;;;;;;;;;;5064001;28;20432;-80
2023/01/24 05:10:23;;;;;;;23.27;6.60;;;;;;;;;;5063938;28;20288;-80
2023/01/24 05:12:48;;;;;;;14.00;6.13;;;;;;;;;;5066278;28;20169;-80
2023/01/24 05:15:13;;;;;;;40.40;8.03;;;;;;;;;;5055129;28;20207;-80
2023/01/24 05:17:38;;;;;;;32.07;7.33;;;;;;;;;;5064317;28;20180;-80
2023/01/24 05:20:04;;;;;;;19.80;8.13;;;;;;;;;;5063413;28;20176;-80
2023/01/24 05:22:29;;;;;;;62.60;12.30;;;;;;;;;;5064809;28;20200;-80
2023/01/24 05:24:54;;;;;;;21.13;7.53;;;;;;;;;;5065732;28;20174;-80
2023/01/24 05:27:19;;;;;;;36.63;7.43;;;;;;;;;;5064044;28;20183;-80
2023/01/24 05:29:44;;;;;;;7.50;4.77;;;;;;;;;;5065272;28;20177;-80
2023/01/24 05:32:10;;;;;;;23.60;8.63;;;;;;;;;;5070367;28;20196;-81
2023/01/24 05:34:35;;;;;;;49.43;10.93;;;;;;;;;;5065309;28;20236;-79
2023/01/24 05:37:00;;;;;;;38.67;11.77;;;;;;;;;;5066439;28;20193;-80
2023/01/24 05:39:25;;;;;;;15.00;6.20;;;;;;;;;;5068468;28;20192;-80
2023/01/24 05:41:51;;;;;;;14.27;6.40;;;;;;;;;;5069047;28;20185;-80
2023/01/24 05:44:16;;;;;;;56.77;10.07;;;;;;;;;;5070529;28;20195;-80
2023/01/24 05:46:43;;;;;;;30.10;11.73;;;;;;;;;;5062174;28;20196;-79
2023/01/24 05:49:08;;;;;;;10.00;5.97;;;;;;;;;;5068344;28;20241;-80
2023/01/24 05:51:33;;;;;;;43.27;12.77;;;;;;;;;;5071215;28;20296;-80
2023/01/24 05:53:59;;;;;;;48.97;10.00;;;;;;;;;;5063820;28;20436;-80
2023/01/24 05:56:24;;;;;;;12.00;6.60;;;;;;;;;;5066360;28;20177;-79
2023/01/24 05:58:49;;;;;;;15.60;7.63;;;;;;;;;;5066055;28;20252;-80
2023/01/24 06:01:16;;;;;;;36.50;11.13;;;;;;;;;;5068335;28;20273;-80
2023/01/24 06:03:42;;;;;;;36.77;9.73;;;;;;;;;;5061468;28;20191;-80
2023/01/24 06:06:08;;;;;;;35.00;9.20;;;;;;;;;;5067709;28;20177;-80
2023/01/24 06:08:33;;;;;;;10.87;7.30;;;;;;;;;;5060094;28;20241;-80
2023/01/24 06:11:05;;;;;;;58.10;12.03;;;;;;;;;;5061089;28;20261;-80
2023/01/24 06:13:31;;;;;;;67.17;13.37;;;;;;;;;;5063562;28;20216;-79
2023/01/24 06:16:00;;;;;;;72.83;13.17;;;;;;;;;;5063621;28;20179;-79
2023/01/24 06:18:25;;;;;;;19.47;9.17;;;;;;;;;;5068388;28;20235;-80
2023/01/24 06:20:50;;;;;;;6.03;3.80;;;;;;;;;;5070223;28;20267;-82
2023/01/24 06:23:23;;;;;;;60.50;14.50;;;;;;;;;;5062557;28;20176;-77
2023/01/24 06:25:49;;;;;;;60.83;11.97;;;;;;;;;;5069142;28;20188;-78
2023/01/24 06:28:14;;;;;;;14.73;5.97;;;;;;;;;;5065692;28;20271;-78
2023/01/24 06:30:41;;;;;;;31.40;11.03;;;;;;;;;;5066987;28;20184;-78
2023/01/24 06:33:33;;;;;;;52.27;16.10;;;;;;;;;;5062727;28;20184;-78
2023/01/24 06:36:17;;;;;;;98.67;16.87;;;;;;;;;;5066603;28;20181;-78
2023/01/24 06:38:42;;;;;;;17.27;7.23;;;;;;;;;;5081647;28;20184;-78
2023/01/24 06:41:14;;;;;;;46.63;12.83;;;;;;;;;;5071679;28;20176;-78
2023/01/24 06:43:39;;;;;;;49.23;12.63;;;;;;;;;;5060444;28;20409;-78
2023/01/24 06:46:04;;;;;;;53.87;13.33;;;;;;;;;;5067285;28;20209;-78
2023/01/24 06:48:29;;;;;;;70.53;14.17;;;;;;;;;;5069010;28;20172;-78
2023/01/24 06:50:55;;;;;;;89.23;13.70;;;;;;;;;;5070259;28;20231;-78
2023/01/24 06:53:20;;;;;;;70.87;13.13;;;;;;;;;;5064546;28;20251;-78
2023/01/24 06:55:46;;;;;;;69.93;14.07;;;;;;;;;;5071181;28;20223;-78
2023/01/24 06:58:11;;;;;;;66.23;13.07;;;;;;;;;;5062092;28;20186;-78
2023/01/24 07:00:36;;;;;;;69.40;13.60;;;;;;;;;;5060528;28;20268;-78
2023/01/24 07:03:06;;;;;;;20.47;8.53;;;;;;;;;;5064416;28;20174;-78
2023/01/24 07:05:31;;;;;;;36.13;9.83;;;;;;;;;;5070076;28;20183;-78
2023/01/24 07:07:56;;;;;;;89.33;15.07;;;;;;;;;;5066968;28;20189;-78
2023/01/24 07:10:22;;;;;;;64.17;12.30;;;;;;;;;;5034927;28;1080912;-78
2023/01/24 07:12:47;;;;;;;28.57;8.70;;;;;;;;;;5072341;28;20187;-78
2023/01/24 07:15:12;;;;;;;133.03;16.67;;;;;;;;;;5063780;28;20243;-78
2023/01/24 07:17:38;;;;;;;66.67;14.13;;;;;;;;;;5068343;28;20199;-78
2023/01/24 07:20:03;;;;;;;7.73;6.07;;;;;;;;;;5069384;28;20177;-78
2023/01/24 07:22:29;;;;;;;38.60;11.20;;;;;;;;;;5062363;28;20177;-78
2023/01/24 07:24:54;;;;;;;48.53;12.53;;;;;;;;;;5072810;28;20271;-78
2023/01/24 07:27:19;;;;;;;25.23;6.07;;;;;;;;;;5065409;28;20199;-79
2023/01/24 07:29:45;;;;;;;18.77;4.57;;;;;;;;;;5065198;28;20179;-78
2023/01/24 07:32:10;;;;;;;22.07;6.53;;;;;;;;;;5076815;28;20235;-79
2023/01/24 07:34:35;;;;;;;19.97;6.23;;;;;;;;;;5068618;28;20214;-79
2023/01/24 07:37:01;;;;;;;86.30;12.97;;;;;;;;;;5062026;28;20264;-79
2023/01/24 07:39:29;;;;;;;87.27;14.40;;;;;;;;;;5064641;28;20233;-79
2023/01/24 07:41:54;;;;;;;114.47;14.30;;;;;;;;;;5067798;28;20177;-79
2023/01/24 07:44:19;;;;;;;90.27;14.50;;;;;;;;;;5071442;28;20213;-79
2023/01/24 07:46:45;;;;;;;53.50;10.90;;;;;;;;;;5067799;28;20193;-79
2023/01/24 07:49:10;;;;;;;7.80;4.57;;;;;;;;;;5066993;28;20188;-79
2023/01/24 07:51:35;;;;;;;100.47;16.63;;;;;;;;;;5057245;28;20166;-78
2023/01/24 07:54:00;;;;;;;28.83;6.93;;;;;;;;;;5064376;28;20196;-79
2023/01/24 07:56:26;;;;;;;17.37;7.43;;;;;;;;;;5068343;28;20303;-79
2023/01/24 07:58:51;;;;;;;42.47;8.17;;;;;;;;;;5067452;28;20207;-79
2023/01/24 08:01:17;;;;;;;85.93;13.73;;;;;;;;;;5069778;28;20239;-79
2023/01/24 08:03:42;;;;;;;41.97;7.97;;;;;;;;;;5059977;28;20177;-79
2023/01/24 08:06:07;;;;;;;42.83;10.37;;;;;;;;;;5069544;28;20177;-79
2023/01/24 08:08:32;;;;;;;53.17;10.60;;;;;;;;;;5067829;28;20230;-79
2023/01/24 08:10:58;;;;;;;26.10;8.03;;;;;;;;;;5059701;28;20235;-79
2023/01/24 08:13:23;;;;;;;30.20;7.97;;;;;;;;;;5070871;28;20201;-79
2023/01/24 08:15:48;;;;;;;34.20;10.73;;;;;;;;;;5063247;28;20234;-79
2023/01/24 08:18:13;;;;;;;53.03;15.37;;;;;;;;;;5063226;28;20185;-79
2023/01/24 08:20:38;;;;;;;52.23;12.20;;;;;;;;;;5063674;28;20171;-79
2023/01/24 08:23:04;;;;;;;51.33;11.93;;;;;;;;;;5061013;28;20176;-79
2023/01/24 08:25:31;;;;;;;6.83;4.70;;;;;;;;;;5065553;28;20172;-79
2023/01/24 08:27:56;;;;;;;45.27;10.77;;;;;;;;;;5064960;28;20266;-79
2023/01/24 08:30:22;;;;;;;23.13;6.40;;;;;;;;;;5061116;28;20241;-79
2023/01/24 08:32:47;;;;;;;77.43;13.23;;;;;;;;;;5063791;28;20243;-79
2023/01/24 08:35:12;;;;;;;37.27;8.17;;;;;;;;;;5060748;28;20209;-79
2023/01/24 08:37:37;;;;;;;67.90;13.03;;;;;;;;;;5062835;28;20180;-79
2023/01/24 08:40:03;;;;;;;114.57;16.23;;;;;;;;;;5063788;28;20174;-79
2023/01/24 08:42:28;;;;;;;70.27;13.07;;;;;;;;;;5067037;28;20185;-79
2023/01/24 08:44:53;;;;;;;165.73;22.60;;;;;;;;;;5068810;28;20245;-79
2023/01/24 08:47:18;;;;;;;56.73;12.53;;;;;;;;;;5069756;28;20181;-79
2023/01/24 08:49:44;;;;;;;104.27;15.80;;;;;;;;;;5066652;28;20181;-79
2023/01/24 08:52:09;;;;;;;124.23;20.20;;;;;;;;;;5063529;28;20275;-79
2023/01/24 08:54:35;;;;;;;91.20;14.63;;;;;;;;;;5068512;28;20203;-80
2023/01/24 08:57:01;;;;;;;6.57;6.00;;;;;;;;;;5059292;28;20192;-79
2023/01/24 08:59:26;;;;;;;53.07;11.83;;;;;;;;;;5057103;28;20177;-79
2023/01/24 09:01:51;;;;;;;56.83;12.53;;;;;;;;;;5060966;28;20164;-79
2023/01/24 09:04:17;;;;;;;7.20;4.53;;;;;;;;;;5065110;28;20216;-79
2023/01/24 09:06:42;;;;;;;88.37;16.70;;;;;;;;;;5062279;28;20181;-79
2023/01/24 09:09:07;;;;;;;59.60;14.23;;;;;;;;;;5065667;28;20181;-79
2023/01/24 09:11:32;;;;;;;66.83;11.43;;;;;;;;;;5066093;28;20343;-79
2023/01/24 09:13:58;;;;;;;165.33;21.77;;;;;;;;;;5066160;28;20211;-79
2023/01/24 09:16:23;;;;;;;104.33;14.47;;;;;;;;;;5067516;28;20194;-79
2023/01/24 09:18:50;;;;;;;86.57;14.87;;;;;;;;;;5064015;28;20172;-79
2023/01/24 09:21:16;;;;;;;60.00;15.53;;;;;;;;;;5065303;28;20200;-79
2023/01/24 09:23:41;;;;;;;106.17;16.30;;;;;;;;;;5066346;28;20181;-79
2023/01/24 09:26:06;;;;;;;25.17;9.67;;;;;;;;;;5065382;28;20194;-80
2023/01/24 09:28:33;;;;;;;78.60;13.87;;;;;;;;;;5067367;28;20181;-79
2023/01/24 09:30:58;;;;;;;70.43;14.90;;;;;;;;;;5066488;28;20229;-79
2023/01/24 09:33:24;;;;;;;62.23;15.37;;;;;;;;;;5067725;28;20185;-79
2023/01/24 09:35:57;;;;;;;85.93;13.70;;;;;;;;;;5067440;28;20184;-79
2023/01/24 09:38:22;;;;;;;92.97;17.03;;;;;;;;;;5069192;28;20307;-79
2023/01/24 09:41:14;;;;;;;80.37;13.97;;;;;;;;;;5068429;28;20269;-79
2023/01/24 09:43:39;;;;;;;65.27;14.07;;;;;;;;;;5046664;28;20193;-79
2023/01/24 09:46:16;;;;;;;55.23;12.93;;;;;;;;;;5059444;28;20365;-80
2023/01/24 09:48:42;;;;;;;51.53;12.07;;;;;;;;;;5067285;28;20279;-79
2023/01/24 09:51:14;;;;;;;66.33;14.27;;;;;;;;;;5065357;28;20271;-79
2023/01/24 09:53:41;;;;;;;80.47;15.33;;;;;;;;;;5066164;28;20204;-79
2023/01/24 09:56:11;;;;;;;40.30;13.10;;;;;;;;;;5063690;28;20193;-79
2023/01/24 09:58:39;;;;;;;98.80;18.33;;;;;;;;;;5064956;28;20176;-79
2023/01/24 10:01:09;;;;;;;49.13;12.67;;;;;;;;;;5065351;28;20215;-79
2023/01/24 10:03:35;;;;;;;95.07;16.30;;;;;;;;;;5063710;28;20188;-80
2023/01/24 10:06:06;;;;;;;68.23;13.97;;;;;;;;;;5064228;28;20205;-80
2023/01/24 10:08:44;;;;;;;70.00;14.23;;;;;;;;;;5069151;28;20181;-80
2023/01/24 10:11:19;;;;;;;103.20;17.43;;;;;;;;;;5061173;28;20381;-80
2023/01/24 10:14:02;;;;;;;85.17;15.83;;;;;;;;;;5069796;28;20196;-80
2023/01/24 10:16:41;;;;;;;43.73;11.90;;;;;;;;;;5084489;28;20170;-80
2023/01/24 10:19:19;;;;;;;133.50;17.53;;;;;;;;;;5075851;28;20178;-80
2023/01/24 10:21:59;;;;;;;14.93;8.30;;;;;;;;;;5065099;28;20185;-80
2023/01/24 10:24:28;;;;;;;146.33;20.33;;;;;;;;;;5068766;28;20177;-80
2023/01/24 10:26:59;;;;;;;66.60;14.70;;;;;;;;;;5067898;28;20225;-80
2023/01/24 10:29:26;;;;;;;60.00;11.77;;;;;;;;;;5068945;28;20211;-80
2023/01/24 10:31:55;;;;;;;40.97;9.70;;;;;;;;;;5068332;28;20260;-80
2023/01/24 10:34:38;;;;;;;55.73;14.97;;;;;;;;;;5066604;28;20204;-80
2023/01/24 10:37:09;;;;;;;57.97;15.60;;;;;;;;;;5070007;28;20215;-80
2023/01/24 10:39:34;;;;;;;55.97;14.00;;;;;;;;;;5065841;28;20213;-80
2023/01/24 10:42:00;;;;;;;21.67;7.70;;;;;;;;;;5043705;28;20200;-80
2023/01/24 10:44:26;;;;;;;70.60;15.53;;;;;;;;;;5064772;28;20188;-80
2023/01/24 10:47:10;;;;;;;9.03;6.73;;;;;;;;;;5071116;28;20211;-80
2023/01/24 10:49:37;;;;;;;9.33;5.03;;;;;;;;;;5068483;28;20174;-80
2023/01/24 10:52:18;;;;;;;32.67;9.27;;;;;;;;;;5069529;28;20174;-80
2023/01/24 10:54:52;;;;;;;85.90;13.40;;;;;;;;;;5065598;28;20300;-80
2023/01/24 10:57:23;;;;;;;50.30;14.57;;;;;;;;;;5071177;28;20208;-80
2023/01/24 10:59:48;;;;;;;113.83;17.57;;;;;;;;;;5068150;28;20179;-80
2023/01/24 11:02:21;;;;;;;27.43;12.30;;;;;;;;;;5072179;28;20181;-80
2023/01/24 11:04:47;;;;;;;7.87;4.93;;;;;;;;;;5066005;28;20182;-80
2023/01/24 11:07:27;;;;;;;65.77;15.10;;;;;;;;;;5065489;28;20186;-80
2023/01/24 11:09:52;;;;;;;43.93;11.70;;;;;;;;;;5060133;28;20209;-80
2023/01/24 11:12:20;;;;;;;78.03;15.47;;;;;;;;;;5069294;28;20219;-81
2023/01/24 11:14:47;;;;;;;38.23;13.63;;;;;;;;;;5067637;28;20197;-81
2023/01/24 11:17:28;;;;;;;44.83;13.03;;;;;;;;;;5069003;28;20181;-80
2023/01/24 11:19:58;;;;;;;24.60;9.90;;;;;;;;;;5085263;28;20220;-80
2023/01/24 11:22:24;;;;;;;42.67;14.33;;;;;;;;;;5068725;28;20210;-81
2023/01/24 11:24:55;;;;;;;40.50;11.53;;;;;;;;;;5069021;28;20205;-80
2023/01/24 11:27:20;;;;;;;31.83;8.53;;;;;;;;;;5067971;28;20181;-80
2023/01/24 11:30:04;;;;;;;72.83;15.03;;;;;;;;;;5063480;28;20178;-80
2023/01/24 11:32:32;;;;;;;33.03;11.33;;;;;;;;;;5067406;28;20176;-80
2023/01/24 11:35:00;;;;;;;39.23;13.13;;;;;;;;;;5065201;28;20198;-81
2023/01/24 11:37:41;;;;;;;84.53;15.97;;;;;;;;;;5065502;28;20182;-80
2023/01/24 11:40:12;;;;;;;16.70;9.97;;;;;;;;;;5067950;28;20181;-80
2023/01/24 11:42:43;;;;;;;39.27;11.97;;;;;;;;;;5069217;28;20198;-81
2023/01/24 11:45:17;;;;;;;18.43;9.03;;;;;;;;;;5067884;28;20170;-80
2023/01/24 11:47:58;;;;;;;52.20;13.60;;;;;;;;;;5070860;28;20214;-80
2023/01/24 11:50:26;;;;;;;42.40;14.33;;;;;;;;;;5062977;28;20188;-80
2023/01/24 11:53:27;;;;;;;49.60;14.17;;;;;;;;;;5066082;28;20189;-80
2023/01/24 11:55:52;;;;;;;59.07;14.63;;;;;;;;;;5017226;28;20205;-81
2023/01/24 11:58:26;;;;;;;32.20;9.77;;;;;;;;;;5011427;28;20190;-80
2023/01/24 12:00:54;;;;;;;31.00;10.73;;;;;;;;;;5009838;28;20187;-80
2023/01/24 12:03:19;;;;;;;43.30;14.43;;;;;;;;;;4999197;28;20198;-80
2023/01/24 12:05:59;;;;;;;107.47;17.97;;;;;;;;;;5029251;28;20186;-81
2023/01/24 12:08:43;;;;;;;60.73;14.13;;;;;;;;;;5010699;28;20217;-81
2023/01/24 12:11:27;;;;;;;44.00;14.80;;;;;;;;;;5004694;28;20219;-79
2023/01/24 12:14:06;;;;;;;78.90;15.83;;;;;;;;;;5026955;28;20210;-81
2023/01/24 12:16:35;;;;;;;44.73;13.17;;;;;;;;;;5008653;28;20266;-80
2023/01/24 12:19:22;;;;;;;63.20;13.33;;;;;;;;;;5008686;28;20197;-80
2023/01/24 12:21:48;;;;;;;72.10;12.53;;;;;;;;;;5028471;28;20178;-80
2023/01/24 12:24:21;;;;;;;52.93;14.23;;;;;;;;;;5021879;28;20205;-80
2023/01/24 12:26:58;;;;;;;7.63;3.80;;;;;;;;;;5001319;28;20190;-80
2023/01/24 12:29:36;;;;;;;62.57;14.13;;;;;;;;;;5023239;28;20197;-80
2023/01/24 12:32:09;;;;;;;39.43;11.33;;;;;;;;;;5067161;28;20271;-80
2023/01/24 12:34:53;;;;;;;23.00;8.87;;;;;;;;;;5069173;28;20203;-80
2023/01/24 12:37:37;;;;;;;41.27;10.90;;;;;;;;;;5062826;28;20207;-80
2023/01/24 12:40:11;;;;;;;19.00;7.13;;;;;;;;;;5068138;28;20180;-80
2023/01/24 12:43:09;;;;;;;51.03;11.93;;;;;;;;;;5063549;28;20176;-82
2023/01/24 12:45:39;;;;;;;21.00;10.37;;;;;;;;;;5031509;28;20216;-80
2023/01/24 12:48:25;;;;;;;51.17;13.43;;;;;;;;;;5065592;28;20177;-80
2023/01/24 12:51:09;;;;;;;98.57;15.70;;;;;;;;;;5058277;28;20177;-81
2023/01/24 12:53:52;;;;;;;17.90;8.43;;;;;;;;;;5066109;28;20205;-80
2023/01/24 12:56:20;;;;;;;33.63;11.13;;;;;;;;;;5067622;28;20184;-80
2023/01/24 12:58:47;;;;;;;41.93;12.27;;;;;;;;;;5069018;28;20397;-80
2023/01/24 13:01:12;;;;;;;34.77;11.63;;;;;;;;;;5064725;28;20187;-81
2023/01/24 13:03:50;;;;;;;53.67;13.67;;;;;;;;;;5064383;28;20268;-81
2023/01/24 13:06:25;;;;;;;21.23;10.00;;;;;;;;;;5065786;28;20185;-81
2023/01/24 13:08:50;;;;;;;20.03;5.40;;;;;;;;;;5065489;28;20185;-80
2023/01/24 13:11:20;;;;;;;31.60;12.17;;;;;;;;;;5067941;28;20233;-80
2023/01/24 13:13:55;;;;;;;22.47;11.67;;;;;;;;;;5069314;28;20205;-80
2023/01/24 13:16:20;;;;;;;22.10;10.23;;;;;;;;;;5067997;28;20236;-80
2023/01/24 13:18:45;;;;;;;37.10;13.17;;;;;;;;;;5063977;28;20264;-80
2023/01/24 13:21:23;;;;;;;39.13;12.77;;;;;;;;;;5066057;28;20170;-81
2023/01/24 13:23:48;;;;;;;27.53;9.90;;;;;;;;;;5068133;28;20519;-81
2023/01/24 13:26:23;;;;;;;13.27;7.23;;;;;;;;;;5067997;28;20181;-80
2023/01/24 13:29:08;;;;;;;7.27;5.73;;;;;;;;;;5079955;28;20196;-81
2023/01/24 13:31:52;;;;;;;14.53;6.03;;;;;;;;;;5068149;28;20181;-80
2023/01/24 13:34:19;;;;;;;35.60;10.13;;;;;;;;;;5058760;28;20209;-81
2023/01/24 13:36:49;;;;;;;38.90;10.27;;;;;;;;;;5064546;28;20307;-81
2023/01/24 13:39:39;;;;;;;9.80;6.17;;;;;;;;;;5067811;28;20184;-81
2023/01/24 13:42:17;;;;;;;15.07;6.63;;;;;;;;;;5066454;28;20515;-80
2023/01/24 13:44:42;;;;;;;30.23;9.60;;;;;;;;;;5065726;28;20596;-80
2023/01/24 13:47:15;;;;;;;22.27;10.37;;;;;;;;;;5058962;28;20268;-81
2023/01/24 13:49:50;;;;;;;13.17;6.70;;;;;;;;;;5063089;28;20178;-80
2023/01/24 13:52:30;;;;;;;67.40;13.30;;;;;;;;;;5065799;28;20180;-80
2023/01/24 13:54:55;;;;;;;17.83;8.07;;;;;;;;;;5070842;28;20193;-80
2023/01/24 13:57:47;;;;;;;32.17;9.57;;;;;;;;;;5065510;28;20264;-80
2023/01/24 14:00:12;;;;;;;24.40;7.67;;;;;;;;;;5066794;28;20220;-81
2023/01/24 14:02:42;;;;;;;17.70;9.50;;;;;;;;;;5069878;28;20197;-80
2023/01/24 14:05:26;;;;;;;11.07;4.03;;;;;;;;;;5071997;28;20181;-80
2023/01/24 14:07:51;;;;;;;25.57;18.43;;;;;;;;;;5070338;28;20478;-80
2023/01/24 14:10:16;;;;;;;20.83;9.23;;;;;;;;;;5071484;28;20225;-80
2023/01/24 14:12:51;;;;;;;17.20;7.90;;;;;;;;;;5067256;28;20223;-80
2023/01/24 14:15:29;;;;;;;28.50;7.40;;;;;;;;;;5067141;28;20204;-80
2023/01/24 14:17:55;;;;;;;8.50;4.70;;;;;;;;;;5061642;28;20511;-80
2023/01/24 14:20:35;;;;;;;17.47;8.67;;;;;;;;;;5070669;28;20215;-80
2023/01/24 14:23:02;;;;;;;37.80;10.23;;;;;;;;;;5068093;28;20203;-80
2023/01/24 14:25:37;;;;;;;22.67;7.90;;;;;;;;;;5069516;28;20188;-80
2023/01/24 14:28:11;;;;;;;28.37;13.27;;;;;;;;;;5064057;28;20185;-80
2023/01/24 14:30:38;;;;;;;16.00;4.53;;;;;;;;;;5070005;28;20172;-80
2023/01/24 14:33:06;;;;;;;14.77;6.47;;;;;;;;;;5069426;28;20199;-80
2023/01/24 14:35:33;;;;;;;23.90;9.97;;;;;;;;;;5077140;28;20239;-80
2023/01/24 14:38:13;;;;;;;28.13;10.10;;;;;;;;;;5071028;28;20173;-80
2023/01/24 14:40:40;;;;;;;28.67;12.20;;;;;;;;;;5064823;28;20181;-80
2023/01/24 14:43:05;;;;;;;68.07;13.97;;;;;;;;;;5069783;28;20198;-81
2023/01/24 14:45:31;;;;;;;30.67;12.10;;;;;;;;;;5069556;28;20263;-81
2023/01/24 14:47:57;;;;;;;20.00;12.93;;;;;;;;;;5064292;28;20178;-80
2023/01/24 14:50:25;;;;;;;18.83;10.97;;;;;;;;;;5071185;28;20264;-80
2023/01/24 14:52:50;;;;;;;27.37;12.07;;;;;;;;;;5069555;28;20207;-80
2023/01/24 14:55:33;;;;;;;49.27;14.20;;;;;;;;;;5068038;28;20197;-81
2023/01/24 14:58:19;;;;;;;24.13;10.83;;;;;;;;;;5061312;28;20185;-80
2023/01/24 15:00:44;;;;;;;7.63;3.37;;;;;;;;;;5056993;28;20264;-80
2023/01/24 15:03:14;;;;;;;26.77;10.17;;;;;;;;;;5069038;28;20220;-80